Time;durP1;ratioP1;P1;durP2;ratioP2;P2;SDS_P1;SDS_P2;PMS_P1;PMS_P2;Temp;Humidity;BMP_temperature;BMP_pressure;BME280_temperature;BME280_humidity;BME280_pressure;Samples;Min_cycle;Max_cycle;Signal;HPM_P1;HPM_P2
2023/02/21 02:15:23;;;;;;;14.23;10.27;;;11.70;82.20;;;;;;4881518;29;20033;-84
2023/02/21 02:18:17;;;;;;;17.25;11.50;;;11.70;82.20;;;;;;4881562;29;20033;-84
2023/02/21 02:21:04;;;;;;;14.80;10.93;;;11.70;82.20;;;;;;4882520;29;20065;-84
2023/02/21 02:23:44;;;;;;;15.38;11.38;;;11.70;82.30;;;;;;4866566;29;20036;-84
2023/02/21 02:26:24;;;;;;;15.65;10.40;;;11.70;82.20;;;;;;4883724;29;20056;-84
2023/02/21 02:29:02;;;;;;;15.25;10.77;;;11.70;82.20;;;;;;4886463;29;20033;-84
2023/02/21 02:31:46;;;;;;;15.32;11.52;;;11.70;82.20;;;;;;4868706;29;20041;-84
2023/02/21 02:34:18;;;;;;;16.37;11.73;;;11.70;82.30;;;;;;4883279;29;20025;-84
2023/02/21 02:36:55;;;;;;;17.58;11.95;;;11.70;82.20;;;;;;4882958;29;20044;-83
2023/02/21 02:39:38;;;;;;;15.75;11.07;;;11.70;82.20;;;;;;4881816;29;20033;-84
2023/02/21 02:42:07;;;;;;;15.20;11.43;;;11.70;82.30;;;;;;4881954;29;20063;-83
2023/02/21 02:44:42;;;;;;;16.77;11.77;;;11.70;82.20;;;;;;4866197;29;20389;-84
2023/02/21 02:47:21;;;;;;;18.45;12.05;;;11.70;82.30;;;;;;4881148;29;20033;-84
2023/02/21 02:49:48;;;;;;;15.65;11.50;;;11.80;82.30;;;;;;4881042;29;20029;-84
2023/02/21 02:52:14;;;;;;;16.83;12.02;;;11.70;82.20;;;;;;4881549;29;20095;-84
2023/02/21 02:54:41;;;;;;;16.27;11.43;;;11.80;82.20;;;;;;4865238;29;20057;-84
2023/02/21 02:57:11;;;;;;;17.60;12.88;;;11.70;82.20;;;;;;4880695;29;20040;-84
2023/02/21 02:59:42;;;;;;;18.48;12.68;;;11.80;82.20;;;;;;4865320;29;20461;-84
2023/02/21 03:02:34;;;;;;;16.42;11.18;;;11.80;82.30;;;;;;4865867;29;20037;-84
2023/02/21 03:05:24;;;;;;;15.73;11.65;;;11.70;82.30;;;;;;4865671;29;20056;-84
2023/02/21 03:08:03;;;;;;;17.02;10.93;;;11.80;82.30;;;;;;4865456;29;20043;-83
2023/02/21 03:10:29;;;;;;;15.85;11.32;;;11.70;82.20;;;;;;4880507;29;20029;-84
2023/02/21 03:13:23;;;;;;;17.95;12.43;;;11.70;82.20;;;;;;4865440;29;20032;-83
2023/02/21 03:16:02;;;;;;;17.45;11.55;;;11.70;82.20;;;;;;4882194;29;20025;-84
2023/02/21 03:19:01;;;;;;;16.77;10.95;;;11.70;82.20;;;;;;4880914;29;20057;-84
2023/02/21 03:21:37;;;;;;;15.60;10.55;;;11.70;82.30;;;;;;4880089;29;20101;-85
2023/02/21 03:24:04;;;;;;;16.23;11.38;;;11.70;82.20;;;;;;4881520;29;20029;-83
2023/02/21 03:26:35;;;;;;;17.75;11.82;;;11.70;82.20;;;;;;4880928;29;20064;-84
2023/02/21 03:29:17;;;;;;;16.92;10.98;;;11.70;82.20;;;;;;4866645;29;20120;-83
2023/02/21 03:31:47;;;;;;;15.93;10.82;;;11.70;82.20;;;;;;4864660;29;20041;-83
2023/02/21 03:34:14;;;;;;;16.17;11.30;;;11.70;82.20;;;;;;4864940;29;20025;-84
2023/02/21 03:36:40;;;;;;;18.13;11.77;;;11.70;82.20;;;;;;4864764;29;20025;-84
2023/02/21 03:39:08;;;;;;;16.77;11.77;;;11.70;82.20;;;;;;4880428;29;20470;-83
2023/02/21 03:41:34;;;;;;;16.83;11.55;;;11.70;82.20;;;;;;4879968;29;20085;-84
2023/02/21 03:43:59;;;;;;;14.18;10.30;;;11.70;82.20;;;;;;4880464;29;20037;-84
2023/02/21 03:46:26;;;;;;;17.33;11.90;;;11.70;82.20;;;;;;4864837;29;20467;-84
2023/02/21 03:48:52;;;;;;;16.98;11.88;;;11.70;82.20;;;;;;4848992;29;20040;-84
2023/02/21 03:51:25;;;;;;;16.42;11.43;;;11.70;82.20;;;;;;4850935;29;20485;-84
2023/02/21 03:53:51;;;;;;;16.23;11.02;;;11.70;82.20;;;;;;4864532;29;20492;-83
2023/02/21 03:56:19;;;;;;;16.58;11.48;;;11.70;82.20;;;;;;4879674;29;20555;-84
2023/02/21 03:59:04;;;;;;;16.35;11.95;;;11.80;82.30;;;;;;4854756;29;20045;-84
2023/02/21 04:01:30;;;;;;;17.20;11.98;;;11.70;82.20;;;;;;4865121;29;20461;-84
2023/02/21 04:03:56;;;;;;;16.90;11.55;;;11.70;82.20;;;;;;4879695;29;20093;-83
2023/02/21 04:06:22;;;;;;;15.63;10.82;;;11.70;82.20;;;;;;4879617;29;20033;-85
2023/02/21 04:08:48;;;;;;;15.77;10.82;;;11.70;82.20;;;;;;4864287;29;20110;-84
2023/02/21 04:11:17;;;;;;;17.50;11.20;;;11.70;82.20;;;;;;4879868;29;20040;-84
2023/02/21 04:13:43;;;;;;;16.50;11.23;;;11.70;82.20;;;;;;4879753;29;20490;-85
2023/02/21 04:16:09;;;;;;;16.85;11.30;;;11.70;82.20;;;;;;4879908;29;20025;-84
2023/02/21 04:18:35;;;;;;;15.80;10.77;;;11.70;82.20;;;;;;4864196;29;20025;-85
2023/02/21 04:21:01;;;;;;;16.80;11.55;;;11.70;82.20;;;;;;4879553;29;20101;-85
2023/02/21 04:23:27;;;;;;;16.40;11.75;;;11.70;82.20;;;;;;4848975;29;20101;-85
2023/02/21 04:25:54;;;;;;;16.88;11.15;;;11.70;82.20;;;;;;4879831;29;20037;-84
2023/02/21 04:28:25;;;;;;;17.83;11.93;;;11.70;82.20;;;;;;4850664;29;20033;-84
2023/02/21 04:30:51;;;;;;;16.85;11.45;;;11.70;82.20;;;;;;4879825;29;20043;-85
2023/02/21 04:33:18;;;;;;;16.25;11.93;;;11.70;82.20;;;;;;4864457;29;20033;-85
2023/02/21 04:35:44;;;;;;;17.65;11.65;;;11.70;82.20;;;;;;4879633;29;20124;-84
2023/02/21 04:38:21;;;;;;;18.67;11.80;;;11.70;82.20;;;;;;4851713;29;20041;-84
2023/02/21 04:40:47;;;;;;;16.80;11.38;;;11.70;82.20;;;;;;4879903;29;20041;-85
2023/02/21 04:43:12;;;;;;;17.75;11.68;;;11.70;82.20;;;;;;4864082;29;20089;-84
2023/02/21 04:45:38;;;;;;;18.88;12.15;;;11.70;82.20;;;;;;4864031;29;20044;-85
2023/02/21 04:48:04;;;;;;;17.90;11.52;;;11.70;82.30;;;;;;4863696;29;20478;-84
2023/02/21 04:50:30;;;;;;;19.02;12.48;;;11.70;82.20;;;;;;4863292;29;20037;-84
2023/02/21 04:52:56;;;;;;;17.77;12.13;;;11.70;82.20;;;;;;4863541;29;20089;-84
2023/02/21 04:55:21;;;;;;;18.10;12.32;;;11.70;82.30;;;;;;4879283;29;20486;-84
2023/02/21 04:57:48;;;;;;;18.25;12.23;;;11.70;82.20;;;;;;4848840;29;20470;-85
2023/02/21 05:00:15;;;;;;;18.48;12.20;;;11.70;82.20;;;;;;4864054;29;20045;-84
2023/02/21 05:02:44;;;;;;;16.42;11.38;;;11.70;82.30;;;;;;4883368;29;20033;-84
2023/02/21 05:05:10;;;;;;;17.60;11.55;;;11.70;82.30;;;;;;4882552;29;20029;-84
2023/02/21 05:07:36;;;;;;;18.10;11.80;;;11.70;82.30;;;;;;4868381;29;20033;-84
2023/02/21 05:10:04;;;;;;;16.83;11.55;;;11.70;82.20;;;;;;4867701;29;20042;-85
2023/02/21 05:12:31;;;;;;;17.63;11.60;;;11.70;82.30;;;;;;4868269;29;20029;-84
2023/02/21 05:14:57;;;;;;;18.45;11.65;;;11.70;82.30;;;;;;4883818;29;20065;-85
2023/02/21 05:17:22;;;;;;;16.83;11.20;;;11.70;82.30;;;;;;4867286;29;20123;-84
2023/02/21 05:19:48;;;;;;;18.10;11.85;;;11.70;82.30;;;;;;4867477;29;20044;-84
2023/02/21 05:22:19;;;;;;;18.67;12.40;;;11.70;82.30;;;;;;4883189;29;20110;-85
2023/02/21 05:24:46;;;;;;;18.58;12.10;;;11.70;82.30;;;;;;4883033;29;20047;-84
2023/02/21 05:27:14;;;;;;;16.17;11.98;;;11.70;82.30;;;;;;4882599;29;20081;-84
2023/02/21 05:29:41;;;;;;;17.38;11.95;;;11.70;82.30;;;;;;4883464;29;20051;-83
2023/02/21 05:32:07;;;;;;;17.33;12.07;;;11.70;82.30;;;;;;4882385;29;20116;-85
2023/02/21 05:34:33;;;;;;;18.08;11.43;;;11.70;82.30;;;;;;4882842;29;20076;-84
2023/02/21 05:36:59;;;;;;;17.95;11.48;;;11.70;82.30;;;;;;4884019;29;20473;-85
2023/02/21 05:39:24;;;;;;;17.35;12.05;;;11.70;82.40;;;;;;4868730;29;20455;-85
2023/02/21 05:41:51;;;;;;;17.30;12.02;;;11.70;82.30;;;;;;4868329;29;20108;-84
2023/02/21 05:44:17;;;;;;;17.42;12.02;;;11.70;82.40;;;;;;4882958;29;20067;-82
2023/02/21 05:46:44;;;;;;;15.68;11.27;;;11.70;82.40;;;;;;4868163;29;20067;-82
2023/02/21 05:49:10;;;;;;;19.40;11.95;;;11.60;82.30;;;;;;4882986;29;20497;-83
2023/02/21 05:51:41;;;;;;;17.38;11.25;;;11.70;82.40;;;;;;4882704;29;20053;-83
2023/02/21 05:54:08;;;;;;;16.85;11.38;;;11.70;82.40;;;;;;4883050;29;20052;-82
2023/02/21 05:56:42;;;;;;;17.85;12.20;;;11.70;82.40;;;;;;4866034;29;20115;-83
2023/02/21 05:59:08;;;;;;;17.27;11.35;;;11.70;82.40;;;;;;4882876;29;20061;-83
2023/02/21 06:01:34;;;;;;;17.70;11.30;;;11.70;82.40;;;;;;4850823;29;20044;-83
2023/02/21 06:04:00;;;;;;;17.27;12.25;;;11.70;82.40;;;;;;4882395;29;20096;-83
2023/02/21 06:06:26;;;;;;;16.40;11.25;;;11.70;82.40;;;;;;4866210;29;20431;-82
2023/02/21 06:08:52;;;;;;;16.73;11.68;;;11.70;82.40;;;;;;4865648;29;20025;-83
2023/02/21 06:11:23;;;;;;;17.13;11.30;;;11.60;82.30;;;;;;4881368;29;20033;-82
2023/02/21 06:13:51;;;;;;;16.10;10.95;;;11.60;82.40;;;;;;4879801;29;20037;-83
2023/02/21 06:16:17;;;;;;;16.42;11.40;;;11.60;82.30;;;;;;4882161;29;20056;-82
2023/02/21 06:18:43;;;;;;;16.85;11.35;;;11.70;82.40;;;;;;4880773;29;20447;-81
2023/02/21 06:21:08;;;;;;;16.75;11.75;;;11.70;82.40;;;;;;4866071;29;20037;-83
2023/02/21 06:23:34;;;;;;;17.67;11.52;;;11.70;82.40;;;;;;4881429;29;20041;-81
2023/02/21 06:26:00;;;;;;;17.35;11.60;;;11.70;82.40;;;;;;4881089;29;20477;-82
2023/02/21 06:28:30;;;;;;;16.67;11.55;;;11.60;82.30;;;;;;4880680;29;20041;-81
2023/02/21 06:30:56;;;;;;;16.60;11.00;;;11.70;82.40;;;;;;4880639;29;20037;-82
2023/02/21 06:33:22;;;;;;;17.50;12.05;;;11.60;82.30;;;;;;4865467;29;20135;-83
2023/02/21 06:35:48;;;;;;;18.17;11.45;;;11.70;82.40;;;;;;4882058;29;20039;-82
2023/02/21 06:38:14;;;;;;;18.40;11.75;;;11.60;82.30;;;;;;4850257;29;20021;-83
2023/02/21 06:40:40;;;;;;;16.25;11.18;;;11.60;82.30;;;;;;4881079;29;20465;-83
2023/02/21 06:43:06;;;;;;;15.98;11.27;;;11.60;82.30;;;;;;4882387;29;20060;-84
2023/02/21 06:45:32;;;;;;;18.38;12.20;;;11.60;82.40;;;;;;4881349;29;20037;-83
2023/02/21 06:47:58;;;;;;;18.70;10.98;;;11.60;82.40;;;;;;4881240;29;20499;-83
2023/02/21 06:50:23;;;;;;;17.60;11.57;;;11.60;82.40;;;;;;4865369;29;20060;-83
2023/02/21 06:52:50;;;;;;;17.40;11.98;;;11.60;82.40;;;;;;4881470;29;20108;-83
2023/02/21 06:55:21;;;;;;;16.73;11.63;;;11.60;82.40;;;;;;4875119;29;20092;-84
2023/02/21 06:57:47;;;;;;;15.38;10.65;;;11.60;82.40;;;;;;4894490;29;20033;-83
2023/02/21 07:00:15;;;;;;;16.50;11.13;;;11.60;83.00;;;;;;4888406;29;20120;-82
2023/02/21 07:02:41;;;;;;;19.65;11.82;;;11.60;82.40;;;;;;4882514;29;20120;-83
2023/02/21 07:05:07;;;;;;;18.35;11.68;;;11.60;82.30;;;;;;4864938;29;20112;-82
2023/02/21 07:07:33;;;;;;;17.98;12.90;;;11.60;82.40;;;;;;4864580;29;20044;-82
2023/02/21 07:09:59;;;;;;;17.25;10.65;;;11.60;82.40;;;;;;4880065;29;20116;-81
2023/02/21 07:12:26;;;;;;;18.00;12.15;;;11.60;82.40;;;;;;4864926;29;20040;-82
2023/02/21 07:14:55;;;;;;;18.10;12.00;;;11.60;82.40;;;;;;4880369;29;20036;-82
2023/02/21 07:17:21;;;;;;;18.20;11.65;;;11.60;82.40;;;;;;4865187;29;20414;-83
2023/02/21 07:19:47;;;;;;;16.30;11.00;;;11.60;82.40;;;;;;4880308;29;20033;-83
2023/02/21 07:22:12;;;;;;;18.75;11.90;;;11.60;82.40;;;;;;4848935;29;20045;-82
2023/02/21 07:24:38;;;;;;;17.73;11.40;;;11.60;82.40;;;;;;4880844;29;20037;-82
2023/02/21 07:27:04;;;;;;;17.55;11.18;;;11.60;82.40;;;;;;4864390;29;20037;-82
2023/02/21 07:29:30;;;;;;;20.27;12.70;;;11.60;82.40;;;;;;4848773;29;20026;-83
2023/02/21 07:31:56;;;;;;;17.67;11.25;;;11.60;82.40;;;;;;4880249;29;20041;-82
2023/02/21 07:34:22;;;;;;;14.98;10.23;;;11.60;82.40;;;;;;4848954;29;20036;-83
2023/02/21 07:36:49;;;;;;;16.50;11.02;;;11.60;82.50;;;;;;4848651;29;20048;-82
2023/02/21 07:39:15;;;;;;;18.95;11.48;;;11.60;82.40;;;;;;4864032;29;20037;-82
2023/02/21 07:41:41;;;;;;;18.13;12.23;;;11.60;82.50;;;;;;4864035;29;20041;-82
2023/02/21 07:44:08;;;;;;;17.10;10.95;;;11.60;82.50;;;;;;4879746;29;20044;-82
2023/02/21 07:46:34;;;;;;;17.23;11.27;;;11.60;82.40;;;;;;4863877;29;20058;-82
2023/02/21 07:49:03;;;;;;;17.05;11.50;;;11.60;82.40;;;;;;4879157;29;20033;-83
2023/02/21 07:51:29;;;;;;;18.48;11.88;;;11.60;82.50;;;;;;4879308;29;20660;-82
2023/02/21 07:53:56;;;;;;;17.35;11.80;;;11.60;82.50;;;;;;4879072;29;20053;-82
2023/02/21 07:56:22;;;;;;;17.10;11.23;;;11.60;82.50;;;;;;4878773;29;20105;-81
2023/02/21 07:58:48;;;;;;;17.40;11.82;;;11.60;82.50;;;;;;4863607;29;20060;-82
2023/02/21 08:01:14;;;;;;;17.92;11.63;;;11.60;82.50;;;;;;4864551;29;20041;-82
2023/02/21 08:03:40;;;;;;;16.88;11.52;;;11.60;82.50;;;;;;4878797;29;20033;-82
2023/02/21 08:06:09;;;;;;;18.48;11.45;;;11.50;82.40;;;;;;4864060;29;20033;-82
2023/02/21 08:08:35;;;;;;;19.15;12.38;;;11.50;82.50;;;;;;4878975;29;20499;-82
2023/02/21 08:11:01;;;;;;;19.67;11.30;;;11.60;82.50;;;;;;4879672;29;20048;-82
2023/02/21 08:13:26;;;;;;;15.82;10.80;;;11.60;82.50;;;;;;4878734;29;20429;-82
2023/02/21 08:15:52;;;;;;;17.25;11.93;;;11.60;82.50;;;;;;4878878;29;20033;-83
2023/02/21 08:18:23;;;;;;;19.23;12.20;;;11.60;82.50;;;;;;4863562;29;20121;-83
2023/02/21 08:20:58;;;;;;;19.15;12.25;;;11.60;82.50;;;;;;4878761;29;20044;-82
2023/02/21 08:23:24;;;;;;;17.58;12.07;;;11.60;82.50;;;;;;4878608;29;20044;-80
2023/02/21 08:25:50;;;;;;;17.48;10.73;;;11.60;82.50;;;;;;4863426;29;20033;-82
2023/02/21 08:28:16;;;;;;;16.83;10.95;;;11.60;82.50;;;;;;4878497;29;20440;-81
2023/02/21 08:30:42;;;;;;;17.95;11.50;;;11.60;82.50;;;;;;4847776;29;20041;-82
2023/02/21 08:33:08;;;;;;;19.90;12.48;;;11.60;82.50;;;;;;4862819;29;20406;-81
2023/02/21 08:35:34;;;;;;;18.27;11.77;;;11.60;82.40;;;;;;4877827;29;20029;-81
2023/02/21 08:38:03;;;;;;;17.77;11.13;;;11.60;82.40;;;;;;4878487;29;20414;-81
2023/02/21 08:40:30;;;;;;;16.75;11.38;;;11.60;82.50;;;;;;4879911;29;20036;-81
2023/02/21 08:42:57;;;;;;;17.92;11.77;;;11.60;82.50;;;;;;4879579;29;20037;-80
2023/02/21 08:45:24;;;;;;;17.67;11.82;;;11.60;82.50;;;;;;4863559;29;20037;-80
2023/02/21 08:47:51;;;;;;;19.10;12.00;;;11.60;82.50;;;;;;4878489;29;20116;-82
2023/02/21 08:50:19;;;;;;;17.55;11.10;;;11.60;82.50;;;;;;4862966;29;20029;-81
2023/02/21 08:52:46;;;;;;;19.20;12.00;;;11.60;82.50;;;;;;4879629;29;20542;-81
2023/02/21 08:55:12;;;;;;;19.08;11.75;;;11.60;83.10;;;;;;4878185;29;20064;-81
2023/02/21 08:57:37;;;;;;;17.88;11.63;;;11.60;82.50;;;;;;4878331;29;20033;-80
2023/02/21 09:00:09;;;;;;;18.38;11.70;;;11.60;82.50;;;;;;4879600;29;20033;-81
2023/02/21 09:02:38;;;;;;;17.52;11.27;;;11.60;82.40;;;;;;4879763;29;20116;-81
2023/02/21 09:05:17;;;;;;;18.00;11.02;;;11.60;82.40;;;;;;4863259;29;20033;-81
2023/02/21 09:07:47;;;;;;;17.13;10.43;;;11.60;82.50;;;;;;4878621;29;20100;-81
2023/02/21 09:10:12;;;;;;;17.30;10.52;;;11.60;82.40;;;;;;4878210;29;20447;-80
2023/02/21 09:12:38;;;;;;;16.17;10.52;;;11.60;82.40;;;;;;4878729;29;20073;-81
2023/02/21 09:15:05;;;;;;;16.70;11.10;;;11.60;82.40;;;;;;4863133;29;20029;-81
2023/02/21 09:17:34;;;;;;;17.15;11.32;;;11.60;82.40;;;;;;4879431;29;20496;-81
2023/02/21 09:20:05;;;;;;;18.10;10.25;;;11.60;82.40;;;;;;4877651;29;20029;-81
2023/02/21 09:22:31;;;;;;;17.45;11.27;;;11.60;82.50;;;;;;4879536;29;20053;-81
2023/02/21 09:24:58;;;;;;;16.73;11.13;;;11.60;82.40;;;;;;4862380;29;20037;-81
2023/02/21 09:27:35;;;;;;;16.33;10.77;;;11.60;82.40;;;;;;4878094;29;20490;-81
2023/02/21 09:30:30;;;;;;;16.63;10.07;;;11.60;82.50;;;;;;4864638;29;20093;-80
2023/02/21 09:32:57;;;;;;;14.70;9.90;;;11.60;82.50;;;;;;4862867;29;20037;-81
2023/02/21 09:35:22;;;;;;;15.30;9.23;;;11.60;82.40;;;;;;4862827;29;20116;-81
2023/02/21 09:37:48;;;;;;;14.75;9.63;;;11.60;82.40;;;;;;4877947;29;20072;-81
2023/02/21 09:40:31;;;;;;;14.52;9.88;;;11.70;82.40;;;;;;4878038;29;20409;-81
2023/02/21 09:42:59;;;;;;;13.95;9.13;;;11.60;82.40;;;;;;4879765;29;20041;-81
2023/02/21 09:45:33;;;;;;;14.75;8.80;;;11.70;82.40;;;;;;4862742;29;20036;-82
2023/02/21 09:48:06;;;;;;;14.90;9.00;;;11.70;82.50;;;;;;4879225;29;20033;-81
2023/02/21 09:51:04;;;;;;;14.77;9.43;;;11.70;82.50;;;;;;4882078;29;20276;-82
2023/02/21 09:53:35;;;;;;;13.55;8.85;;;11.70;82.50;;;;;;4880562;29;20076;-81
2023/02/21 09:56:24;;;;;;;12.90;8.38;;;11.70;82.40;;;;;;4880729;29;20053;-82
2023/02/21 09:58:50;;;;;;;14.40;9.05;;;11.70;83.10;;;;;;4865222;29;20044;-82
2023/02/21 10:01:45;;;;;;;13.38;8.70;;;11.70;82.40;;;;;;4881396;29;20367;-81
2023/02/21 10:04:26;;;;;;;12.00;8.43;;;11.70;82.50;;;;;;4881174;29;20044;-80
2023/02/21 10:07:00;;;;;;;12.85;8.30;;;11.70;82.50;;;;;;4865482;29;20056;-81
2023/02/21 10:09:35;;;;;;;13.65;8.48;;;11.70;82.40;;;;;;4881679;29;20037;-81
2023/02/21 10:12:23;;;;;;;13.40;8.82;;;11.70;82.40;;;;;;4882250;29;20033;-81
2023/02/21 10:15:10;;;;;;;12.98;8.73;;;11.70;82.50;;;;;;4880577;29;20044;-81
2023/02/21 10:17:39;;;;;;;13.80;8.73;;;11.70;82.40;;;;;;4880751;29;20048;-81
2023/02/21 10:20:27;;;;;;;12.75;8.25;;;11.70;82.40;;;;;;4880897;29;20025;-81
2023/02/21 10:22:55;;;;;;;13.32;8.43;;;11.70;82.40;;;;;;4865417;29;20059;-82
2023/02/21 10:25:30;;;;;;;14.02;9.32;;;11.70;82.40;;;;;;4865309;29;20029;-84
2023/02/21 10:27:58;;;;;;;13.50;8.63;;;11.70;82.40;;;;;;4865113;29;20085;-82
2023/02/21 10:30:34;;;;;;;13.25;8.48;;;11.70;82.40;;;;;;4865122;29;20462;-82
2023/02/21 10:33:05;;;;;;;12.55;8.18;;;11.70;82.40;;;;;;4865365;29;20459;-81
2023/02/21 10:35:32;;;;;;;12.85;8.35;;;11.70;82.40;;;;;;4881554;29;20438;-82
2023/02/21 10:38:01;;;;;;;11.40;8.05;;;11.80;82.50;;;;;;4864625;29;20037;-81
2023/02/21 10:40:34;;;;;;;13.50;9.07;;;11.80;82.50;;;;;;4865114;29;20473;-82
2023/02/21 10:43:14;;;;;;;12.43;8.02;;;11.80;82.50;;;;;;4880523;29;20501;-82
2023/02/21 10:45:46;;;;;;;12.85;8.23;;;11.80;82.50;;;;;;4880649;29;20033;-82
2023/02/21 10:48:13;;;;;;;12.25;7.85;;;11.80;82.50;;;;;;4865015;29;20036;-81
2023/02/21 10:50:56;;;;;;;13.85;9.18;;;11.80;82.40;;;;;;4880235;29;20037;-81
2023/02/21 10:53:29;;;;;;;12.43;8.30;;;11.80;82.40;;;;;;4864686;29;20037;-82
2023/02/21 10:56:13;;;;;;;11.02;7.45;;;11.80;82.40;;;;;;4864694;29;20052;-82
2023/02/21 10:58:48;;;;;;;12.30;7.93;;;11.80;82.40;;;;;;4864995;29;20097;-81
2023/02/21 11:01:17;;;;;;;13.23;8.45;;;11.80;82.40;;;;;;4881707;29;20044;-81
2023/02/21 11:03:47;;;;;;;10.73;7.30;;;11.80;82.40;;;;;;4880228;29;20029;-82
2023/02/21 11:06:32;;;;;;;13.80;8.50;;;11.80;82.40;;;;;;4864651;29;20061;-82
2023/02/21 11:08:58;;;;;;;12.88;8.20;;;11.80;82.50;;;;;;4879997;29;20104;-81
2023/02/21 11:11:40;;;;;;;11.32;8.30;;;11.80;82.40;;;;;;4880063;29;20033;-82
2023/02/21 11:14:18;;;;;;;11.82;7.80;;;11.80;82.40;;;;;;4879881;29;20036;-81
2023/02/21 11:16:43;;;;;;;14.45;9.30;;;11.80;82.40;;;;;;4879800;29;20064;-82
2023/02/21 11:19:13;;;;;;;13.05;8.20;;;11.80;82.40;;;;;;4880305;29;20064;-82
2023/02/21 11:21:40;;;;;;;13.52;8.55;;;11.80;82.40;;;;;;4863996;29;20371;-82
2023/02/21 11:24:10;;;;;;;11.95;7.80;;;11.80;82.40;;;;;;4880215;29;20057;-82
2023/02/21 11:26:49;;;;;;;12.50;8.52;;;11.80;82.40;;;;;;4879227;29;20033;-82
2023/02/21 11:29:25;;;;;;;11.50;7.57;;;11.90;82.50;;;;;;4879565;29;20033;-81
2023/02/21 11:31:55;;;;;;;11.20;7.65;;;11.90;82.40;;;;;;4879887;29;20040;-81
2023/02/21 11:34:27;;;;;;;11.85;7.45;;;11.90;82.40;;;;;;4879724;29;20045;-81
2023/02/21 11:37:00;;;;;;;12.90;8.23;;;11.90;82.40;;;;;;4880174;29;20483;-82
2023/02/21 11:39:32;;;;;;;12.02;7.18;;;11.90;82.40;;;;;;4864304;29;20097;-81
2023/02/21 11:41:59;;;;;;;11.68;7.07;;;11.90;82.40;;;;;;4848813;29;20082;-82
2023/02/21 11:44:35;;;;;;;11.07;7.22;;;11.90;82.40;;;;;;4879547;29;20033;-82
2023/02/21 11:47:21;;;;;;;9.95;6.53;;;11.90;82.40;;;;;;4880882;29;20032;-82
2023/02/21 11:50:11;;;;;;;11.38;7.50;;;11.90;82.30;;;;;;4881506;29;20029;-82
2023/02/21 11:52:43;;;;;;;10.25;6.45;;;11.90;82.40;;;;;;4883523;29;20029;-82
2023/02/21 11:55:15;;;;;;;10.93;7.03;;;11.90;82.90;;;;;;4879545;29;20036;-82
2023/02/21 11:57:47;;;;;;;9.50;6.40;;;11.90;82.40;;;;;;4880586;29;20061;-82
2023/02/21 12:00:22;;;;;;;11.80;7.60;;;12.00;82.40;;;;;;4881256;29;20032;-82
2023/02/21 12:02:58;;;;;;;11.23;7.03;;;11.90;82.40;;;;;;4883153;29;20037;-81
2023/02/21 12:05:41;;;;;;;10.20;6.65;;;12.00;82.40;;;;;;4865980;29;20119;-82
2023/02/21 12:08:37;;;;;;;10.77;6.78;;;11.90;82.30;;;;;;4880292;29;20041;-82
2023/02/21 12:11:25;;;;;;;11.13;6.88;;;12.00;82.40;;;;;;4881771;29;20041;-82
2023/02/21 12:14:11;;;;;;;10.55;6.50;;;12.00;82.40;;;;;;4880304;29;20462;-81
2023/02/21 12:16:48;;;;;;;8.23;5.97;;;12.00;82.40;;;;;;4864786;29;20036;-82
2023/02/21 12:19:38;;;;;;;10.23;6.00;;;12.00;82.40;;;;;;4880707;29;20169;-81
2023/02/21 12:22:34;;;;;;;9.95;6.47;;;12.00;82.40;;;;;;4863789;29;20029;-82
2023/02/21 12:25:18;;;;;;;9.18;6.47;;;12.00;82.40;;;;;;4879291;29;20477;-82
2023/02/21 12:28:03;;;;;;;9.85;5.97;;;12.00;82.30;;;;;;4879394;29;20036;-82
2023/02/21 12:30:49;;;;;;;9.18;6.10;;;12.00;82.40;;;;;;4880401;29;20037;-82
2023/02/21 12:33:53;;;;;;;8.13;5.25;;;12.00;82.40;;;;;;4878849;29;20029;-82
2023/02/21 12:36:38;;;;;;;9.50;5.88;;;12.00;82.40;;;;;;4878923;29;20198;-82
2023/02/21 12:39:28;;;;;;;8.13;5.05;;;12.00;82.40;;;;;;4863733;29;20031;-81
2023/02/21 12:41:53;;;;;;;8.52;5.55;;;12.00;82.40;;;;;;4881633;29;20033;-82
2023/02/21 12:44:38;;;;;;;8.98;6.20;;;12.00;82.30;;;;;;4866502;29;20382;-82
2023/02/21 12:47:26;;;;;;;8.90;5.85;;;12.00;82.40;;;;;;4879560;29;20036;-82
2023/02/21 12:50:11;;;;;;;8.55;6.07;;;12.00;82.40;;;;;;4863866;29;20025;-80
2023/02/21 12:53:01;;;;;;;7.80;5.50;;;12.00;82.40;;;;;;4879624;29;20100;-82
2023/02/21 12:55:37;;;;;;;8.05;5.05;;;12.10;82.40;;;;;;4879494;29;20057;-81
2023/02/21 12:58:12;;;;;;;9.10;5.95;;;12.10;82.40;;;;;;4879318;29;20053;-81
2023/02/21 13:00:43;;;;;;;8.07;5.32;;;12.10;82.40;;;;;;4879468;29;20120;-81
2023/02/21 13:03:25;;;;;;;8.52;5.53;;;12.10;82.40;;;;;;4878189;29;20116;-81
2023/02/21 13:05:59;;;;;;;8.30;5.50;;;12.10;82.40;;;;;;4862764;29;20037;-81
2023/02/21 13:08:34;;;;;;;8.43;5.35;;;12.10;82.40;;;;;;4863818;29;20029;-82
2023/02/21 13:11:00;;;;;;;7.95;5.22;;;12.10;82.40;;;;;;4879234;29;20084;-82
2023/02/21 13:13:31;;;;;;;8.80;5.22;;;12.10;82.40;;;;;;4863009;29;20073;-82
2023/02/21 13:15:59;;;;;;;8.23;5.35;;;12.10;82.40;;;;;;4862951;29;20029;-82
2023/02/21 13:18:27;;;;;;;7.75;5.13;;;12.10;82.40;;;;;;4862738;29;20033;-82
2023/02/21 13:21:04;;;;;;;7.97;5.10;;;12.10;82.40;;;;;;4878345;29;20107;-82
2023/02/21 13:23:51;;;;;;;8.27;5.50;;;12.10;82.40;;;;;;4865719;29;20078;-80
2023/02/21 13:26:50;;;;;;;7.05;4.53;;;12.10;82.30;;;;;;4882009;29;20116;-81
2023/02/21 13:29:24;;;;;;;8.05;5.18;;;12.10;82.30;;;;;;4881826;29;20029;-82
2023/02/21 13:32:08;;;;;;;7.82;5.13;;;12.10;82.40;;;;;;4882863;29;20044;-82
2023/02/21 13:34:38;;;;;;;8.27;4.80;;;12.10;82.40;;;;;;4881834;29;20085;-81
2023/02/21 13:37:12;;;;;;;7.60;5.25;;;12.10;82.30;;;;;;4881497;29;20028;-82
2023/02/21 13:39:45;;;;;;;7.78;5.20;;;12.20;82.40;;;;;;4866149;29;20033;-82
2023/02/21 13:42:20;;;;;;;7.47;5.25;;;12.20;82.40;;;;;;4881367;29;20036;-82
2023/02/21 13:45:21;;;;;;;7.15;4.50;;;12.20;82.40;;;;;;4866079;29;20037;-81
2023/02/21 13:47:56;;;;;;;7.68;4.80;;;12.20;82.40;;;;;;4865514;29;20036;-82
2023/02/21 13:50:37;;;;;;;8.45;5.47;;;12.20;82.40;;;;;;4865658;29;20114;-82
2023/02/21 13:53:22;;;;;;;8.02;5.28;;;12.20;82.40;;;;;;4881054;29;20370;-81
2023/02/21 13:56:08;;;;;;;6.85;4.22;;;12.20;82.40;;;;;;4880967;29;20120;-82
2023/02/21 13:58:39;;;;;;;7.75;4.88;;;12.20;82.40;;;;;;4865651;29;20128;-81
2023/02/21 14:01:14;;;;;;;7.50;4.90;;;12.20;82.40;;;;;;4882213;29;20092;-81
2023/02/21 14:03:40;;;;;;;7.25;4.78;;;12.20;82.40;;;;;;4865608;29;20068;-81
2023/02/21 14:06:09;;;;;;;7.10;4.63;;;12.20;82.40;;;;;;4866423;29;20422;-82
2023/02/21 14:08:44;;;;;;;6.35;4.32;;;12.20;82.40;;;;;;4865680;29;20128;-82
2023/02/21 14:11:31;;;;;;;8.48;5.25;;;12.20;82.40;;;;;;4880842;29;20045;-82
2023/02/21 14:14:25;;;;;;;7.32;4.57;;;12.20;83.00;;;;;;4880804;29;20053;-82
2023/02/21 14:17:00;;;;;;;7.10;4.63;;;12.20;82.40;;;;;;4879951;29;20056;-82
2023/02/21 14:19:35;;;;;;;7.22;4.70;;;12.30;82.30;;;;;;4880578;29;20032;-82
2023/02/21 14:22:22;;;;;;;6.90;4.33;;;12.30;82.40;;;;;;4881908;29;20033;-82
2023/02/21 14:24:52;;;;;;;7.10;4.60;;;12.30;82.40;;;;;;4880991;29;20302;-82
2023/02/21 14:27:17;;;;;;;8.82;5.00;;;12.30;82.50;;;;;;4880576;29;20030;-82
2023/02/21 14:30:13;;;;;;;7.45;4.72;;;12.20;82.30;;;;;;4865308;29;20382;-81
2023/02/21 14:32:49;;;;;;;6.85;4.40;;;12.20;82.40;;;;;;4880958;29;20040;-82
2023/02/21 14:35:33;;;;;;;6.90;4.70;;;12.30;82.40;;;;;;4880632;29;20035;-81
2023/02/21 14:38:03;;;;;;;8.48;5.15;;;12.20;82.40;;;;;;4865232;29;20037;-81
2023/02/21 14:40:32;;;;;;;7.40;4.53;;;12.30;82.30;;;;;;4880319;29;20041;-81
2023/02/21 14:43:39;;;;;;;6.78;4.70;;;12.30;82.40;;;;;;4865304;29;20033;-82
2023/02/21 14:46:33;;;;;;;6.68;4.22;;;12.30;82.40;;;;;;4864704;29;20029;-82
2023/02/21 14:49:28;;;;;;;8.00;4.80;;;12.30;82.40;;;;;;4880445;29;20041;-82
2023/02/21 14:52:15;;;;;;;6.57;4.00;;;12.30;82.40;;;;;;4865167;29;20159;-81
2023/02/21 14:55:00;;;;;;;8.15;4.45;;;12.30;82.40;;;;;;4879880;29;20033;-82
2023/02/21 14:57:41;;;;;;;6.63;4.32;;;12.30;82.40;;;;;;4864362;29;20057;-81
2023/02/21 15:00:15;;;;;;;6.97;4.57;;;12.30;82.30;;;;;;4864724;29;20071;-81
2023/02/21 15:02:57;;;;;;;6.95;4.60;;;12.30;82.30;;;;;;4880189;29;20037;-80
2023/02/21 15:05:42;;;;;;;7.28;4.45;;;12.30;82.30;;;;;;4864571;29;20025;-82
2023/02/21 15:08:23;;;;;;;7.63;4.60;;;12.30;82.30;;;;;;4864647;29;20043;-82
2023/02/21 15:10:55;;;;;;;6.55;4.43;;;12.30;82.40;;;;;;4864145;29;20041;-82
2023/02/21 15:13:35;;;;;;;6.57;4.47;;;12.30;82.30;;;;;;4864509;29;20037;-82
2023/02/21 15:16:04;;;;;;;7.60;4.85;;;12.30;82.40;;;;;;4866561;29;20115;-82